sensor_id;sensor_type;location;lat;lon;timestamp;temperature;humidity
19292;DHT22;9779;51.756;7.450;2022-12-05T00:01:50;2.60;99.90
19292;DHT22;9779;51.756;7.450;2022-12-05T00:04:16;2.60;99.90
19292;DHT22;9779;51.756;7.450;2022-12-05T00:06:42;2.50;99.90
19292;DHT22;9779;51.756;7.450;2022-12-05T00:09:09;2.60;99.90
19292;DHT22;9779;51.756;7.450;2022-12-05T00:11:39;2.60;99.90
19292;DHT22;9779;51.756;7.450;2022-12-05T00:14:06;2.60;99.90
19292;DHT22;9779;51.756;7.450;2022-12-05T00:16:36;2.60;99.90
19292;DHT22;9779;51.756;7.450;2022-12-05T00:19:04;2.60;99.90
19292;DHT22;9779;51.756;7.450;2022-12-05T00:21:31;2.60;99.90
19292;DHT22;9779;51.756;7.450;2022-12-05T00:23:59;2.60;99.90
19292;DHT22;9779;51.756;7.450;2022-12-05T00:26:25;2.60;99.90
19292;DHT22;9779;51.756;7.450;2022-12-05T00:28:52;2.60;99.90
19292;DHT22;9779;51.756;7.450;2022-12-05T00:31:22;2.60;99.90
19292;DHT22;9779;51.756;7.450;2022-12-05T00:33:49;2.60;99.90
19292;DHT22;9779;51.756;7.450;2022-12-05T00:36:21;2.60;99.90
19292;DHT22;9779;51.756;7.450;2022-12-05T00:38:47;2.60;99.90
19292;DHT22;9779;51.756;7.450;2022-12-05T00:41:24;2.60;99.90
19292;DHT22;9779;51.756;7.450;2022-12-05T00:43:51;2.60;99.90
19292;DHT22;9779;51.756;7.450;2022-12-05T00:46:21;2.60;99.90
19292;DHT22;9779;51.756;7.450;2022-12-05T00:48:47;2.60;99.90
19292;DHT22;9779;51.756;7.450;2022-12-05T00:51:22;2.60;99.90
19292;DHT22;9779;51.756;7.450;2022-12-05T00:53:48;2.60;99.90
19292;DHT22;9779;51.756;7.450;2022-12-05T00:56:17;2.60;99.90
19292;DHT22;9779;51.756;7.450;2022-12-05T00:58:43;2.60;99.90
19292;DHT22;9779;51.756;7.450;2022-12-05T01:01:14;2.60;99.90
19292;DHT22;9779;51.756;7.450;2022-12-05T01:03:41;2.60;99.90
19292;DHT22;9779;51.756;7.450;2022-12-05T01:06:07;2.60;99.90
19292;DHT22;9779;51.756;7.450;2022-12-05T01:08:34;2.70;99.90
19292;DHT22;9779;51.756;7.450;2022-12-05T01:11:00;2.60;99.90
19292;DHT22;9779;51.756;7.450;2022-12-05T01:13:26;2.70;99.90
19292;DHT22;9779;51.756;7.450;2022-12-05T01:15:53;2.60;99.90
19292;DHT22;9779;51.756;7.450;2022-12-05T01:18:20;2.60;99.90
19292;DHT22;9779;51.756;7.450;2022-12-05T01:20:46;2.70;99.90
19292;DHT22;9779;51.756;7.450;2022-12-05T01:23:12;2.70;99.90
19292;DHT22;9779;51.756;7.450;2022-12-05T01:25:39;2.60;99.90
19292;DHT22;9779;51.756;7.450;2022-12-05T01:28:05;2.60;99.90
19292;DHT22;9779;51.756;7.450;2022-12-05T01:30:31;2.70;99.90
19292;DHT22;9779;51.756;7.450;2022-12-05T01:32:58;2.70;99.90
19292;DHT22;9779;51.756;7.450;2022-12-05T01:35:23;2.70;99.90
19292;DHT22;9779;51.756;7.450;2022-12-05T01:37:50;2.70;99.90
19292;DHT22;9779;51.756;7.450;2022-12-05T01:40:16;2.70;99.90
19292;DHT22;9779;51.756;7.450;2022-12-05T01:42:41;2.60;99.90
19292;DHT22;9779;51.756;7.450;2022-12-05T01:45:17;2.70;99.90
19292;DHT22;9779;51.756;7.450;2022-12-05T01:47:43;2.70;99.90
19292;DHT22;9779;51.756;7.450;2022-12-05T01:50:09;2.70;99.90
19292;DHT22;9779;51.756;7.450;2022-12-05T01:52:37;2.70;99.90
19292;DHT22;9779;51.756;7.450;2022-12-05T01:55:08;2.70;99.90
19292;DHT22;9779;51.756;7.450;2022-12-05T01:57:35;2.70;99.90
19292;DHT22;9779;51.756;7.450;2022-12-05T02:00:07;2.70;99.90
19292;DHT22;9779;51.756;7.450;2022-12-05T02:02:34;2.80;99.90
19292;DHT22;9779;51.756;7.450;2022-12-05T02:05:04;2.70;99.90
19292;DHT22;9779;51.756;7.450;2022-12-05T02:07:31;2.70;99.90
19292;DHT22;9779;51.756;7.450;2022-12-05T02:09:58;2.70;99.90
19292;DHT22;9779;51.756;7.450;2022-12-05T02:12:24;2.70;99.90
19292;DHT22;9779;51.756;7.450;2022-12-05T02:20:16;2.70;99.90
19292;DHT22;9779;51.756;7.450;2022-12-05T02:23:25;2.70;99.90
19292;DHT22;9779;51.756;7.450;2022-12-05T02:26:16;2.70;99.90
19292;DHT22;9779;51.756;7.450;2022-12-05T02:31:52;2.70;99.90
19292;DHT22;9779;51.756;7.450;2022-12-05T02:34:30;2.70;99.90
19292;DHT22;9779;51.756;7.450;2022-12-05T02:37:12;2.70;99.90
19292;DHT22;9779;51.756;7.450;2022-12-05T02:39:56;2.70;99.90
19292;DHT22;9779;51.756;7.450;2022-12-05T02:42:32;2.70;99.90
19292;DHT22;9779;51.756;7.450;2022-12-05T02:45:19;2.70;99.90
19292;DHT22;9779;51.756;7.450;2022-12-05T02:47:49;2.70;99.90
19292;DHT22;9779;51.756;7.450;2022-12-05T02:50:18;2.70;99.90
19292;DHT22;9779;51.756;7.450;2022-12-05T02:52:48;2.70;99.90
19292;DHT22;9779;51.756;7.450;2022-12-05T02:55:16;2.70;99.90
19292;DHT22;9779;51.756;7.450;2022-12-05T02:57:45;2.70;99.90
19292;DHT22;9779;51.756;7.450;2022-12-05T03:00:13;2.80;99.90
19292;DHT22;9779;51.756;7.450;2022-12-05T03:02:39;2.70;99.90
19292;DHT22;9779;51.756;7.450;2022-12-05T03:05:40;2.70;99.90
19292;DHT22;9779;51.756;7.450;2022-12-05T03:08:10;2.70;99.90
19292;DHT22;9779;51.756;7.450;2022-12-05T03:10:40;2.70;99.90
19292;DHT22;9779;51.756;7.450;2022-12-05T03:13:13;2.70;99.90
19292;DHT22;9779;51.756;7.450;2022-12-05T03:15:45;2.70;99.90
19292;DHT22;9779;51.756;7.450;2022-12-05T03:18:27;2.70;99.90
19292;DHT22;9779;51.756;7.450;2022-12-05T03:23:55;2.80;99.90
19292;DHT22;9779;51.756;7.450;2022-12-05T03:29:21;2.70;99.90
19292;DHT22;9779;51.756;7.450;2022-12-05T03:37:52;2.80;99.90
19292;DHT22;9779;51.756;7.450;2022-12-05T03:45:50;2.80;99.90
19292;DHT22;9779;51.756;7.450;2022-12-05T03:50:50;2.70;99.90
19292;DHT22;9779;51.756;7.450;2022-12-05T03:53:32;2.80;99.90
19292;DHT22;9779;51.756;7.450;2022-12-05T03:56:05;2.70;99.90
19292;DHT22;9779;51.756;7.450;2022-12-05T03:58:38;2.80;99.90
19292;DHT22;9779;51.756;7.450;2022-12-05T04:01:07;2.70;99.90
19292;DHT22;9779;51.756;7.450;2022-12-05T04:03:41;2.70;99.90
19292;DHT22;9779;51.756;7.450;2022-12-05T04:06:13;2.80;99.90
19292;DHT22;9779;51.756;7.450;2022-12-05T04:08:46;2.70;99.90
19292;DHT22;9779;51.756;7.450;2022-12-05T04:11:17;2.80;99.90
19292;DHT22;9779;51.756;7.450;2022-12-05T04:16:11;2.80;99.90
19292;DHT22;9779;51.756;7.450;2022-12-05T04:19:01;2.80;99.90
19292;DHT22;9779;51.756;7.450;2022-12-05T04:21:39;2.80;99.90
19292;DHT22;9779;51.756;7.450;2022-12-05T04:24:09;2.80;99.90
19292;DHT22;9779;51.756;7.450;2022-12-05T04:30:08;2.80;99.90
19292;DHT22;9779;51.756;7.450;2022-12-05T04:33:13;2.80;99.90
19292;DHT22;9779;51.756;7.450;2022-12-05T04:36:02;2.80;99.90
19292;DHT22;9779;51.756;7.450;2022-12-05T04:41:27;2.80;99.90
19292;DHT22;9779;51.756;7.450;2022-12-05T04:43:57;2.80;99.90
19292;DHT22;9779;51.756;7.450;2022-12-05T04:46:23;2.80;99.90
19292;DHT22;9779;51.756;7.450;2022-12-05T04:48:54;2.80;99.90
19292;DHT22;9779;51.756;7.450;2022-12-05T04:51:23;2.80;99.90
19292;DHT22;9779;51.756;7.450;2022-12-05T04:53:53;2.80;99.90
19292;DHT22;9779;51.756;7.450;2022-12-05T04:56:21;2.80;99.90
19292;DHT22;9779;51.756;7.450;2022-12-05T04:58:48;2.80;99.90
19292;DHT22;9779;51.756;7.450;2022-12-05T05:01:21;2.80;99.90
19292;DHT22;9779;51.756;7.450;2022-12-05T05:04:15;2.80;99.90
19292;DHT22;9779;51.756;7.450;2022-12-05T05:06:42;2.80;99.90
19292;DHT22;9779;51.756;7.450;2022-12-05T05:09:09;2.80;99.90
19292;DHT22;9779;51.756;7.450;2022-12-05T05:11:35;2.80;99.90
19292;DHT22;9779;51.756;7.450;2022-12-05T05:14:02;2.80;99.90
19292;DHT22;9779;51.756;7.450;2022-12-05T05:16:33;2.80;99.90
19292;DHT22;9779;51.756;7.450;2022-12-05T05:18:59;2.80;99.90
19292;DHT22;9779;51.756;7.450;2022-12-05T05:21:36;2.80;99.90
19292;DHT22;9779;51.756;7.450;2022-12-05T05:24:03;2.80;99.90
19292;DHT22;9779;51.756;7.450;2022-12-05T05:26:30;2.80;99.90
19292;DHT22;9779;51.756;7.450;2022-12-05T05:28:57;2.80;99.90
19292;DHT22;9779;51.756;7.450;2022-12-05T05:31:23;2.80;99.90
19292;DHT22;9779;51.756;7.450;2022-12-05T05:33:51;2.80;99.90
19292;DHT22;9779;51.756;7.450;2022-12-05T05:36:18;2.80;99.90
19292;DHT22;9779;51.756;7.450;2022-12-05T05:38:46;2.80;99.90
19292;DHT22;9779;51.756;7.450;2022-12-05T05:43:39;2.80;99.90
19292;DHT22;9779;51.756;7.450;2022-12-05T05:46:05;2.80;99.90
19292;DHT22;9779;51.756;7.450;2022-12-05T05:48:31;2.80;99.90
19292;DHT22;9779;51.756;7.450;2022-12-05T05:51:01;2.90;99.90
19292;DHT22;9779;51.756;7.450;2022-12-05T05:53:27;2.80;99.90
19292;DHT22;9779;51.756;7.450;2022-12-05T05:55:52;2.80;99.90
19292;DHT22;9779;51.756;7.450;2022-12-05T05:58:18;2.80;99.90
19292;DHT22;9779;51.756;7.450;2022-12-05T06:00:44;2.80;99.90
19292;DHT22;9779;51.756;7.450;2022-12-05T06:03:09;2.80;99.90
19292;DHT22;9779;51.756;7.450;2022-12-05T06:05:35;2.80;99.90
19292;DHT22;9779;51.756;7.450;2022-12-05T06:08:01;2.80;99.90
19292;DHT22;9779;51.756;7.450;2022-12-05T06:10:26;2.80;99.90
19292;DHT22;9779;51.756;7.450;2022-12-05T06:12:54;2.80;99.90
19292;DHT22;9779;51.756;7.450;2022-12-05T06:15:19;2.90;99.90
19292;DHT22;9779;51.756;7.450;2022-12-05T06:17:45;2.90;99.90
19292;DHT22;9779;51.756;7.450;2022-12-05T06:20:11;2.80;99.90
19292;DHT22;9779;51.756;7.450;2022-12-05T06:22:36;2.90;99.90
19292;DHT22;9779;51.756;7.450;2022-12-05T06:25:02;2.80;99.90
19292;DHT22;9779;51.756;7.450;2022-12-05T06:27:29;2.80;99.90
19292;DHT22;9779;51.756;7.450;2022-12-05T06:29:55;2.80;99.90
19292;DHT22;9779;51.756;7.450;2022-12-05T06:32:21;2.80;99.90
19292;DHT22;9779;51.756;7.450;2022-12-05T06:34:46;2.90;99.90
19292;DHT22;9779;51.756;7.450;2022-12-05T06:37:12;2.80;99.90
19292;DHT22;9779;51.756;7.450;2022-12-05T06:39:37;2.80;99.90
19292;DHT22;9779;51.756;7.450;2022-12-05T06:42:03;2.80;99.90
19292;DHT22;9779;51.756;7.450;2022-12-05T06:44:29;2.90;99.90
19292;DHT22;9779;51.756;7.450;2022-12-05T06:46:55;2.90;99.90
19292;DHT22;9779;51.756;7.450;2022-12-05T06:49:22;2.80;99.90
19292;DHT22;9779;51.756;7.450;2022-12-05T06:51:50;2.80;99.90
19292;DHT22;9779;51.756;7.450;2022-12-05T06:54:16;2.80;99.90
19292;DHT22;9779;51.756;7.450;2022-12-05T06:56:41;2.80;99.90
19292;DHT22;9779;51.756;7.450;2022-12-05T06:59:07;2.80;99.90
19292;DHT22;9779;51.756;7.450;2022-12-05T07:01:33;2.80;99.90
19292;DHT22;9779;51.756;7.450;2022-12-05T07:04:12;2.70;99.90
19292;DHT22;9779;51.756;7.450;2022-12-05T07:06:40;2.80;99.90
19292;DHT22;9779;51.756;7.450;2022-12-05T07:09:07;2.80;99.90
19292;DHT22;9779;51.756;7.450;2022-12-05T07:11:33;2.80;99.90
19292;DHT22;9779;51.756;7.450;2022-12-05T07:13:58;2.80;99.90
19292;DHT22;9779;51.756;7.450;2022-12-05T07:16:24;2.80;99.90
19292;DHT22;9779;51.756;7.450;2022-12-05T07:18:50;2.80;99.90
19292;DHT22;9779;51.756;7.450;2022-12-05T07:21:16;2.90;99.90
19292;DHT22;9779;51.756;7.450;2022-12-05T07:23:44;2.80;99.90
19292;DHT22;9779;51.756;7.450;2022-12-05T07:26:21;2.80;99.90
19292;DHT22;9779;51.756;7.450;2022-12-05T07:28:48;2.80;99.90
19292;DHT22;9779;51.756;7.450;2022-12-05T07:31:17;2.80;99.90
19292;DHT22;9779;51.756;7.450;2022-12-05T07:33:43;2.80;99.90
19292;DHT22;9779;51.756;7.450;2022-12-05T07:36:17;2.80;99.90
19292;DHT22;9779;51.756;7.450;2022-12-05T07:38:43;2.80;99.90
19292;DHT22;9779;51.756;7.450;2022-12-05T07:41:14;2.90;99.90
19292;DHT22;9779;51.756;7.450;2022-12-05T07:43:41;2.90;99.90
19292;DHT22;9779;51.756;7.450;2022-12-05T07:46:07;2.90;99.90
19292;DHT22;9779;51.756;7.450;2022-12-05T07:48:35;2.90;99.90
19292;DHT22;9779;51.756;7.450;2022-12-05T07:51:02;2.90;99.90
19292;DHT22;9779;51.756;7.450;2022-12-05T07:53:30;2.90;99.90
19292;DHT22;9779;51.756;7.450;2022-12-05T07:55:58;2.90;99.90
19292;DHT22;9779;51.756;7.450;2022-12-05T07:58:24;2.90;99.90
19292;DHT22;9779;51.756;7.450;2022-12-05T08:00:50;2.80;99.90
19292;DHT22;9779;51.756;7.450;2022-12-05T08:03:15;2.90;99.90
19292;DHT22;9779;51.756;7.450;2022-12-05T08:05:41;2.80;99.90
19292;DHT22;9779;51.756;7.450;2022-12-05T08:08:06;2.90;99.90
19292;DHT22;9779;51.756;7.450;2022-12-05T08:10:33;2.80;99.90
19292;DHT22;9779;51.756;7.450;2022-12-05T08:12:59;2.90;99.90
19292;DHT22;9779;51.756;7.450;2022-12-05T08:15:25;2.90;99.90
19292;DHT22;9779;51.756;7.450;2022-12-05T08:17:51;2.90;99.90
19292;DHT22;9779;51.756;7.450;2022-12-05T08:20:16;2.90;99.90
19292;DHT22;9779;51.756;7.450;2022-12-05T08:22:42;2.90;99.90
19292;DHT22;9779;51.756;7.450;2022-12-05T08:25:08;2.90;99.90
19292;DHT22;9779;51.756;7.450;2022-12-05T08:27:34;3.00;99.90
19292;DHT22;9779;51.756;7.450;2022-12-05T08:29:59;2.90;99.90
19292;DHT22;9779;51.756;7.450;2022-12-05T08:32:25;2.90;99.90
19292;DHT22;9779;51.756;7.450;2022-12-05T08:34:51;2.90;99.90
19292;DHT22;9779;51.756;7.450;2022-12-05T08:37:17;2.90;99.90
19292;DHT22;9779;51.756;7.450;2022-12-05T08:39:43;3.00;99.90
19292;DHT22;9779;51.756;7.450;2022-12-05T08:42:08;2.90;99.90
19292;DHT22;9779;51.756;7.450;2022-12-05T08:44:34;2.90;99.90
19292;DHT22;9779;51.756;7.450;2022-12-05T08:47:00;2.90;99.90
19292;DHT22;9779;51.756;7.450;2022-12-05T08:49:25;3.00;99.90
19292;DHT22;9779;51.756;7.450;2022-12-05T08:51:51;3.00;99.90
19292;DHT22;9779;51.756;7.450;2022-12-05T08:54:17;3.00;99.90
19292;DHT22;9779;51.756;7.450;2022-12-05T08:56:42;3.00;99.90
19292;DHT22;9779;51.756;7.450;2022-12-05T08:59:08;3.00;99.90
19292;DHT22;9779;51.756;7.450;2022-12-05T09:01:34;3.00;99.90
19292;DHT22;9779;51.756;7.450;2022-12-05T09:04:03;2.90;99.90
19292;DHT22;9779;51.756;7.450;2022-12-05T09:06:30;3.00;99.90
19292;DHT22;9779;51.756;7.450;2022-12-05T09:08:58;2.90;99.90
19292;DHT22;9779;51.756;7.450;2022-12-05T09:11:27;3.00;99.90
19292;DHT22;9779;51.756;7.450;2022-12-05T09:13:56;3.00;99.90
19292;DHT22;9779;51.756;7.450;2022-12-05T09:16:24;3.00;99.90
19292;DHT22;9779;51.756;7.450;2022-12-05T09:18:51;2.90;99.90
19292;DHT22;9779;51.756;7.450;2022-12-05T09:21:20;2.90;99.90
19292;DHT22;9779;51.756;7.450;2022-12-05T09:23:46;2.90;99.90
19292;DHT22;9779;51.756;7.450;2022-12-05T09:26:15;2.90;99.90
19292;DHT22;9779;51.756;7.450;2022-12-05T09:28:41;2.90;99.90
19292;DHT22;9779;51.756;7.450;2022-12-05T09:31:10;2.90;99.90
19292;DHT22;9779;51.756;7.450;2022-12-05T09:33:37;2.90;99.90
19292;DHT22;9779;51.756;7.450;2022-12-05T09:36:08;2.90;99.90
19292;DHT22;9779;51.756;7.450;2022-12-05T09:38:35;2.90;99.90
19292;DHT22;9779;51.756;7.450;2022-12-05T09:44:00;3.00;99.90
19292;DHT22;9779;51.756;7.450;2022-12-05T09:46:49;4.70;99.90
19292;DHT22;9779;51.756;7.450;2022-12-05T09:49:17;4.90;99.90
19292;DHT22;9779;51.756;7.450;2022-12-05T09:51:45;4.10;99.90
19292;DHT22;9779;51.756;7.450;2022-12-05T09:54:13;3.70;99.90
19292;DHT22;9779;51.756;7.450;2022-12-05T09:56:40;3.50;99.90
19292;DHT22;9779;51.756;7.450;2022-12-05T09:59:11;3.10;99.90
19292;DHT22;9779;51.756;7.450;2022-12-05T10:01:57;3.10;99.90
19292;DHT22;9779;51.756;7.450;2022-12-05T10:04:53;3.10;99.90
19292;DHT22;9779;51.756;7.450;2022-12-05T10:07:45;3.00;99.90
19292;DHT22;9779;51.756;7.450;2022-12-05T10:10:44;2.90;99.90
19292;DHT22;9779;51.756;7.450;2022-12-05T10:13:57;2.80;99.90
19292;DHT22;9779;51.756;7.450;2022-12-05T10:16:13;2.80;99.90
19292;DHT22;9779;51.756;7.450;2022-12-05T10:21:16;2.80;99.90
19292;DHT22;9779;51.756;7.450;2022-12-05T10:23:55;2.70;99.90
19292;DHT22;9779;51.756;7.450;2022-12-05T10:29:50;2.80;99.90
19292;DHT22;9779;51.756;7.450;2022-12-05T10:32:23;2.80;99.90
19292;DHT22;9779;51.756;7.450;2022-12-05T10:34:54;2.80;99.90
19292;DHT22;9779;51.756;7.450;2022-12-05T10:37:24;2.80;99.90
19292;DHT22;9779;51.756;7.450;2022-12-05T10:39:51;2.80;99.90
19292;DHT22;9779;51.756;7.450;2022-12-05T10:42:27;2.80;99.90
19292;DHT22;9779;51.756;7.450;2022-12-05T10:45:01;2.80;99.90
19292;DHT22;9779;51.756;7.450;2022-12-05T10:47:28;2.80;99.90
19292;DHT22;9779;51.756;7.450;2022-12-05T10:49:55;2.70;99.90
19292;DHT22;9779;51.756;7.450;2022-12-05T10:52:23;2.70;99.90
19292;DHT22;9779;51.756;7.450;2022-12-05T10:54:54;2.70;99.90
19292;DHT22;9779;51.756;7.450;2022-12-05T10:57:28;2.70;99.90
19292;DHT22;9779;51.756;7.450;2022-12-05T11:00:07;2.70;99.90
19292;DHT22;9779;51.756;7.450;2022-12-05T11:02:33;2.70;99.90
19292;DHT22;9779;51.756;7.450;2022-12-05T11:05:02;2.60;99.90
19292;DHT22;9779;51.756;7.450;2022-12-05T11:09:57;2.50;99.90
19292;DHT22;9779;51.756;7.450;2022-12-05T11:12:42;2.50;99.90
19292;DHT22;9779;51.756;7.450;2022-12-05T11:17:48;2.50;99.90
19292;DHT22;9779;51.756;7.450;2022-12-05T11:22:47;2.40;99.90
19292;DHT22;9779;51.756;7.450;2022-12-05T11:25:31;2.50;99.90
19292;DHT22;9779;51.756;7.450;2022-12-05T11:33:27;2.40;99.90
19292;DHT22;9779;51.756;7.450;2022-12-05T11:35:55;2.50;99.90
19292;DHT22;9779;51.756;7.450;2022-12-05T11:38:26;2.40;99.90
19292;DHT22;9779;51.756;7.450;2022-12-05T11:41:14;2.50;99.90
19292;DHT22;9779;51.756;7.450;2022-12-05T11:43:55;2.50;99.90
19292;DHT22;9779;51.756;7.450;2022-12-05T11:46:45;2.50;99.90
19292;DHT22;9779;51.756;7.450;2022-12-05T12:10:53;2.30;99.90
19292;DHT22;9779;51.756;7.450;2022-12-05T12:18:51;2.30;99.90
19292;DHT22;9779;51.756;7.450;2022-12-05T12:37:42;2.30;99.90
19292;DHT22;9779;51.756;7.450;2022-12-05T12:40:50;2.30;99.90
19292;DHT22;9779;51.756;7.450;2022-12-05T12:51:22;2.30;99.90
19292;DHT22;9779;51.756;7.450;2022-12-05T13:02:21;2.30;99.90
19292;DHT22;9779;51.756;7.450;2022-12-05T13:05:54;2.30;99.90
19292;DHT22;9779;51.756;7.450;2022-12-05T13:07:54;2.30;99.90
19292;DHT22;9779;51.756;7.450;2022-12-05T13:10:47;2.30;99.90
19292;DHT22;9779;51.756;7.450;2022-12-05T13:13:20;2.30;99.90
19292;DHT22;9779;51.756;7.450;2022-12-05T13:15:52;2.30;99.90
19292;DHT22;9779;51.756;7.450;2022-12-05T13:18:22;2.20;99.90
19292;DHT22;9779;51.756;7.450;2022-12-05T13:20:51;2.20;99.90
19292;DHT22;9779;51.756;7.450;2022-12-05T13:23:20;2.20;99.90
19292;DHT22;9779;51.756;7.450;2022-12-05T13:25:47;2.20;99.90
19292;DHT22;9779;51.756;7.450;2022-12-05T13:28:28;2.20;99.90
19292;DHT22;9779;51.756;7.450;2022-12-05T13:30:56;2.20;99.90
19292;DHT22;9779;51.756;7.450;2022-12-05T13:33:25;2.20;99.90
19292;DHT22;9779;51.756;7.450;2022-12-05T13:36:10;2.30;99.90
19292;DHT22;9779;51.756;7.450;2022-12-05T13:39:20;2.20;99.90
19292;DHT22;9779;51.756;7.450;2022-12-05T13:42:05;2.30;99.90
19292;DHT22;9779;51.756;7.450;2022-12-05T13:44:44;2.30;99.90
19292;DHT22;9779;51.756;7.450;2022-12-05T13:52:53;2.30;99.90
19292;DHT22;9779;51.756;7.450;2022-12-05T13:55:35;2.30;99.90
19292;DHT22;9779;51.756;7.450;2022-12-05T14:00:40;2.30;99.90
19292;DHT22;9779;51.756;7.450;2022-12-05T14:05:48;2.20;99.90
19292;DHT22;9779;51.756;7.450;2022-12-05T14:15:48;2.20;99.90
19292;DHT22;9779;51.756;7.450;2022-12-05T14:18:30;2.10;99.90
19292;DHT22;9779;51.756;7.450;2022-12-05T14:24:06;2.10;99.90
19292;DHT22;9779;51.756;7.450;2022-12-05T14:32:39;2.10;99.90
19292;DHT22;9779;51.756;7.450;2022-12-05T14:35:29;2.10;99.90
19292;DHT22;9779;51.756;7.450;2022-12-05T14:38:01;2.10;99.90
19292;DHT22;9779;51.756;7.450;2022-12-05T14:40:32;2.10;99.90
19292;DHT22;9779;51.756;7.450;2022-12-05T14:45:41;2.20;99.90
19292;DHT22;9779;51.756;7.450;2022-12-05T14:50:41;2.10;99.90
19292;DHT22;9779;51.756;7.450;2022-12-05T14:53:33;2.10;99.90
19292;DHT22;9779;51.756;7.450;2022-12-05T14:58:32;2.10;99.90
19292;DHT22;9779;51.756;7.450;2022-12-05T15:01:04;2.00;99.90
19292;DHT22;9779;51.756;7.450;2022-12-05T15:03:37;2.10;99.90
19292;DHT22;9779;51.756;7.450;2022-12-05T15:06:05;2.00;99.90
19292;DHT22;9779;51.756;7.450;2022-12-05T15:08:45;2.00;99.90
19292;DHT22;9779;51.756;7.450;2022-12-05T15:11:17;2.00;99.90
19292;DHT22;9779;51.756;7.450;2022-12-05T15:13:58;2.00;99.90
19292;DHT22;9779;51.756;7.450;2022-12-05T15:16:25;2.00;99.90
19292;DHT22;9779;51.756;7.450;2022-12-05T15:19:01;2.00;99.90
19292;DHT22;9779;51.756;7.450;2022-12-05T15:21:42;2.00;99.90
19292;DHT22;9779;51.756;7.450;2022-12-05T15:24:15;2.00;99.90
19292;DHT22;9779;51.756;7.450;2022-12-05T15:26:49;2.00;99.90
19292;DHT22;9779;51.756;7.450;2022-12-05T15:34:26;2.00;99.90
19292;DHT22;9779;51.756;7.450;2022-12-05T15:39:55;2.00;99.90
19292;DHT22;9779;51.756;7.450;2022-12-05T15:42:24;2.00;99.90
19292;DHT22;9779;51.756;7.450;2022-12-05T15:44:50;2.00;99.90
19292;DHT22;9779;51.756;7.450;2022-12-05T15:47:24;1.90;99.90
19292;DHT22;9779;51.756;7.450;2022-12-05T15:49:50;1.90;99.90
19292;DHT22;9779;51.756;7.450;2022-12-05T15:52:30;1.90;99.90
19292;DHT22;9779;51.756;7.450;2022-12-05T15:55:03;1.90;99.90
19292;DHT22;9779;51.756;7.450;2022-12-05T16:00:37;1.90;99.90
19292;DHT22;9779;51.756;7.450;2022-12-05T16:03:13;1.90;99.90
19292;DHT22;9779;51.756;7.450;2022-12-05T16:08:43;1.90;99.90
19292;DHT22;9779;51.756;7.450;2022-12-05T16:11:09;1.90;99.90
19292;DHT22;9779;51.756;7.450;2022-12-05T16:13:36;1.90;99.90
19292;DHT22;9779;51.756;7.450;2022-12-05T16:16:06;1.80;99.90
19292;DHT22;9779;51.756;7.450;2022-12-05T16:18:33;1.90;99.90
19292;DHT22;9779;51.756;7.450;2022-12-05T16:20:58;1.80;99.90
19292;DHT22;9779;51.756;7.450;2022-12-05T16:23:29;1.80;99.90
19292;DHT22;9779;51.756;7.450;2022-12-05T16:28:37;1.80;99.90
19292;DHT22;9779;51.756;7.450;2022-12-05T16:31:04;1.80;99.90
19292;DHT22;9779;51.756;7.450;2022-12-05T16:33:30;1.80;99.90
19292;DHT22;9779;51.756;7.450;2022-12-05T16:36:10;1.90;99.90
19292;DHT22;9779;51.756;7.450;2022-12-05T16:38:36;1.80;99.90
19292;DHT22;9779;51.756;7.450;2022-12-05T16:41:06;1.90;99.90
19292;DHT22;9779;51.756;7.450;2022-12-05T16:48:38;1.80;99.90
19292;DHT22;9779;51.756;7.450;2022-12-05T16:53:49;1.80;99.90
19292;DHT22;9779;51.756;7.450;2022-12-05T16:56:25;1.80;99.90
19292;DHT22;9779;51.756;7.450;2022-12-05T16:58:52;1.80;99.90
19292;DHT22;9779;51.756;7.450;2022-12-05T17:01:20;1.80;99.90
19292;DHT22;9779;51.756;7.450;2022-12-05T17:03:46;1.80;99.90
19292;DHT22;9779;51.756;7.450;2022-12-05T17:06:13;1.80;99.90
19292;DHT22;9779;51.756;7.450;2022-12-05T17:08:39;1.80;99.90
19292;DHT22;9779;51.756;7.450;2022-12-05T17:11:16;1.80;99.90
19292;DHT22;9779;51.756;7.450;2022-12-05T17:13:42;1.80;99.90
19292;DHT22;9779;51.756;7.450;2022-12-05T17:16:09;1.70;99.90
19292;DHT22;9779;51.756;7.450;2022-12-05T17:18:35;1.70;99.90
19292;DHT22;9779;51.756;7.450;2022-12-05T17:21:01;1.70;99.90
19292;DHT22;9779;51.756;7.450;2022-12-05T17:23:27;1.80;99.90
19292;DHT22;9779;51.756;7.450;2022-12-05T17:25:55;1.80;99.90
19292;DHT22;9779;51.756;7.450;2022-12-05T17:28:21;1.70;99.90
19292;DHT22;9779;51.756;7.450;2022-12-05T17:30:47;1.70;99.90
19292;DHT22;9779;51.756;7.450;2022-12-05T17:33:16;1.70;99.90
19292;DHT22;9779;51.756;7.450;2022-12-05T17:35:41;1.60;99.90
19292;DHT22;9779;51.756;7.450;2022-12-05T17:38:07;1.60;99.90
19292;DHT22;9779;51.756;7.450;2022-12-05T17:40:35;1.60;99.90
19292;DHT22;9779;51.756;7.450;2022-12-05T17:43:00;1.60;99.90
19292;DHT22;9779;51.756;7.450;2022-12-05T17:45:26;1.60;99.90
19292;DHT22;9779;51.756;7.450;2022-12-05T17:47:52;1.60;99.90
19292;DHT22;9779;51.756;7.450;2022-12-05T17:50:20;1.60;99.90
19292;DHT22;9779;51.756;7.450;2022-12-05T17:52:47;1.60;99.90
19292;DHT22;9779;51.756;7.450;2022-12-05T17:55:21;1.60;99.90
19292;DHT22;9779;51.756;7.450;2022-12-05T17:57:47;1.50;99.90
19292;DHT22;9779;51.756;7.450;2022-12-05T18:00:15;1.50;99.90
19292;DHT22;9779;51.756;7.450;2022-12-05T18:02:42;1.50;99.90
19292;DHT22;9779;51.756;7.450;2022-12-05T18:05:10;1.60;99.90
19292;DHT22;9779;51.756;7.450;2022-12-05T18:07:37;1.60;99.90
19292;DHT22;9779;51.756;7.450;2022-12-05T18:10:05;1.50;99.90
19292;DHT22;9779;51.756;7.450;2022-12-05T18:12:32;1.50;99.90
19292;DHT22;9779;51.756;7.450;2022-12-05T18:14:57;1.50;99.90
19292;DHT22;9779;51.756;7.450;2022-12-05T18:17:24;1.50;99.90
19292;DHT22;9779;51.756;7.450;2022-12-05T18:19:55;1.40;99.90
19292;DHT22;9779;51.756;7.450;2022-12-05T18:22:27;1.40;99.90
19292;DHT22;9779;51.756;7.450;2022-12-05T18:24:56;1.40;99.90
19292;DHT22;9779;51.756;7.450;2022-12-05T18:27:23;1.40;99.90
19292;DHT22;9779;51.756;7.450;2022-12-05T18:29:51;1.40;99.90
19292;DHT22;9779;51.756;7.450;2022-12-05T18:32:34;1.40;99.90
19292;DHT22;9779;51.756;7.450;2022-12-05T18:35:00;1.40;99.90
19292;DHT22;9779;51.756;7.450;2022-12-05T18:37:28;1.40;99.90
19292;DHT22;9779;51.756;7.450;2022-12-05T18:39:54;1.40;99.90
19292;DHT22;9779;51.756;7.450;2022-12-05T18:42:23;1.40;99.90
19292;DHT22;9779;51.756;7.450;2022-12-05T18:44:49;1.50;99.90
19292;DHT22;9779;51.756;7.450;2022-12-05T18:47:15;1.50;99.90
19292;DHT22;9779;51.756;7.450;2022-12-05T18:49:43;1.50;99.90
19292;DHT22;9779;51.756;7.450;2022-12-05T18:52:09;1.50;99.90
19292;DHT22;9779;51.756;7.450;2022-12-05T18:54:35;1.50;99.90
19292;DHT22;9779;51.756;7.450;2022-12-05T18:57:02;1.40;99.90
19292;DHT22;9779;51.756;7.450;2022-12-05T18:59:28;1.50;99.90
19292;DHT22;9779;51.756;7.450;2022-12-05T19:01:55;1.40;99.90
19292;DHT22;9779;51.756;7.450;2022-12-05T19:04:24;1.50;99.90
19292;DHT22;9779;51.756;7.450;2022-12-05T19:06:55;1.50;99.90
19292;DHT22;9779;51.756;7.450;2022-12-05T19:09:24;1.50;99.90
19292;DHT22;9779;51.756;7.450;2022-12-05T19:11:52;1.50;99.90
19292;DHT22;9779;51.756;7.450;2022-12-05T19:14:30;1.50;99.90
19292;DHT22;9779;51.756;7.450;2022-12-05T19:16:57;1.50;99.90
19292;DHT22;9779;51.756;7.450;2022-12-05T19:19:24;1.50;99.90
19292;DHT22;9779;51.756;7.450;2022-12-05T19:21:51;1.50;99.90
19292;DHT22;9779;51.756;7.450;2022-12-05T19:24:18;1.50;99.90